sensor_id;sensor_type;location;lat;lon;timestamp;P1;durP1;ratioP1;P2;durP2;ratioP2
40997;SDS011;26740;45.944;12.480;2023-02-18T00:00:17;246.85;;;91.43;;
40997;SDS011;26740;45.944;12.480;2023-02-18T00:02:44;251.48;;;89.88;;
40997;SDS011;26740;45.944;12.480;2023-02-18T00:05:10;233.63;;;89.38;;
40997;SDS011;26740;45.944;12.480;2023-02-18T00:07:37;240.25;;;88.45;;
40997;SDS011;26740;45.944;12.480;2023-02-18T00:10:04;216.02;;;85.00;;
40997;SDS011;26740;45.944;12.480;2023-02-18T00:12:33;227.32;;;86.80;;
40997;SDS011;26740;45.944;12.480;2023-02-18T00:14:59;216.88;;;80.13;;
40997;SDS011;26740;45.944;12.480;2023-02-18T00:17:24;205.95;;;77.35;;
40997;SDS011;26740;45.944;12.480;2023-02-18T00:19:50;196.48;;;78.07;;
40997;SDS011;26740;45.944;12.480;2023-02-18T00:22:15;195.65;;;69.95;;
40997;SDS011;26740;45.944;12.480;2023-02-18T00:24:41;212.95;;;74.55;;
40997;SDS011;26740;45.944;12.480;2023-02-18T00:27:07;186.95;;;75.40;;
40997;SDS011;26740;45.944;12.480;2023-02-18T00:29:32;192.45;;;77.28;;
40997;SDS011;26740;45.944;12.480;2023-02-18T00:31:58;200.48;;;75.43;;
40997;SDS011;26740;45.944;12.480;2023-02-18T00:34:23;202.05;;;77.97;;
40997;SDS011;26740;45.944;12.480;2023-02-18T00:36:49;196.38;;;81.22;;
40997;SDS011;26740;45.944;12.480;2023-02-18T00:39:14;200.65;;;80.47;;
40997;SDS011;26740;45.944;12.480;2023-02-18T00:41:40;201.65;;;81.13;;
40997;SDS011;26740;45.944;12.480;2023-02-18T00:44:06;204.02;;;79.90;;
40997;SDS011;26740;45.944;12.480;2023-02-18T00:46:32;203.27;;;79.70;;
40997;SDS011;26740;45.944;12.480;2023-02-18T00:48:58;190.95;;;76.53;;
40997;SDS011;26740;45.944;12.480;2023-02-18T00:51:24;205.52;;;76.53;;
40997;SDS011;26740;45.944;12.480;2023-02-18T00:53:49;202.30;;;78.57;;
40997;SDS011;26740;45.944;12.480;2023-02-18T00:56:16;206.88;;;83.10;;
40997;SDS011;26740;45.944;12.480;2023-02-18T00:58:42;212.88;;;80.75;;
40997;SDS011;26740;45.944;12.480;2023-02-18T01:01:08;213.73;;;83.10;;
40997;SDS011;26740;45.944;12.480;2023-02-18T01:03:35;218.65;;;87.55;;
40997;SDS011;26740;45.944;12.480;2023-02-18T01:06:01;226.63;;;85.50;;
40997;SDS011;26740;45.944;12.480;2023-02-18T01:08:28;224.20;;;88.07;;
40997;SDS011;26740;45.944;12.480;2023-02-18T01:10:54;234.98;;;86.72;;
40997;SDS011;26740;45.944;12.480;2023-02-18T01:13:22;214.88;;;84.28;;
40997;SDS011;26740;45.944;12.480;2023-02-18T01:15:48;212.40;;;88.28;;
40997;SDS011;26740;45.944;12.480;2023-02-18T01:18:14;231.85;;;89.15;;
40997;SDS011;26740;45.944;12.480;2023-02-18T01:20:41;225.95;;;87.13;;
40997;SDS011;26740;45.944;12.480;2023-02-18T01:23:08;211.48;;;86.22;;
40997;SDS011;26740;45.944;12.480;2023-02-18T01:25:35;217.88;;;87.88;;
40997;SDS011;26740;45.944;12.480;2023-02-18T01:28:01;216.25;;;84.57;;
40997;SDS011;26740;45.944;12.480;2023-02-18T01:30:26;212.07;;;84.43;;
40997;SDS011;26740;45.944;12.480;2023-02-18T01:32:52;201.05;;;85.15;;
40997;SDS011;26740;45.944;12.480;2023-02-18T01:35:18;207.52;;;87.80;;
40997;SDS011;26740;45.944;12.480;2023-02-18T01:37:44;202.95;;;85.90;;
40997;SDS011;26740;45.944;12.480;2023-02-18T01:40:15;202.93;;;83.47;;
40997;SDS011;26740;45.944;12.480;2023-02-18T01:42:43;201.27;;;82.72;;
40997;SDS011;26740;45.944;12.480;2023-02-18T01:48:03;205.80;;;82.45;;
40997;SDS011;26740;45.944;12.480;2023-02-18T01:50:30;197.38;;;82.20;;
40997;SDS011;26740;45.944;12.480;2023-02-18T01:53:00;194.80;;;83.45;;
40997;SDS011;26740;45.944;12.480;2023-02-18T01:55:26;195.27;;;83.57;;
40997;SDS011;26740;45.944;12.480;2023-02-18T01:57:52;202.65;;;83.30;;
40997;SDS011;26740;45.944;12.480;2023-02-18T02:00:19;199.00;;;79.35;;
40997;SDS011;26740;45.944;12.480;2023-02-18T02:02:48;188.82;;;81.70;;
40997;SDS011;26740;45.944;12.480;2023-02-18T02:05:16;194.77;;;83.38;;
40997;SDS011;26740;45.944;12.480;2023-02-18T02:07:43;194.95;;;84.35;;
40997;SDS011;26740;45.944;12.480;2023-02-18T02:10:12;187.68;;;80.85;;
40997;SDS011;26740;45.944;12.480;2023-02-18T02:16:00;185.82;;;78.43;;
40997;SDS011;26740;45.944;12.480;2023-02-18T02:45:31;177.45;;;77.35;;
40997;SDS011;26740;45.944;12.480;2023-02-18T02:53:26;175.90;;;73.70;;
40997;SDS011;26740;45.944;12.480;2023-02-18T02:55:56;180.48;;;76.00;;
40997;SDS011;26740;45.944;12.480;2023-02-18T02:58:21;191.45;;;77.78;;
40997;SDS011;26740;45.944;12.480;2023-02-18T03:11:32;169.18;;;73.03;;
40997;SDS011;26740;45.944;12.480;2023-02-18T03:14:13;196.10;;;79.95;;
40997;SDS011;26740;45.944;12.480;2023-02-18T03:17:02;190.52;;;79.05;;
40997;SDS011;26740;45.944;12.480;2023-02-18T03:19:39;189.00;;;78.85;;
40997;SDS011;26740;45.944;12.480;2023-02-18T03:22:12;183.32;;;75.65;;
40997;SDS011;26740;45.944;12.480;2023-02-18T03:24:49;179.35;;;78.53;;
40997;SDS011;26740;45.944;12.480;2023-02-18T03:27:28;175.93;;;75.53;;
40997;SDS011;26740;45.944;12.480;2023-02-18T03:29:58;175.98;;;73.38;;
40997;SDS011;26740;45.944;12.480;2023-02-18T03:32:30;201.88;;;79.60;;
40997;SDS011;26740;45.944;12.480;2023-02-18T03:34:59;187.65;;;76.72;;
40997;SDS011;26740;45.944;12.480;2023-02-18T03:37:30;187.23;;;76.97;;
40997;SDS011;26740;45.944;12.480;2023-02-18T03:39:58;190.60;;;78.80;;
40997;SDS011;26740;45.944;12.480;2023-02-18T03:42:29;189.90;;;76.00;;
40997;SDS011;26740;45.944;12.480;2023-02-18T03:44:54;203.98;;;84.30;;
40997;SDS011;26740;45.944;12.480;2023-02-18T03:47:20;188.02;;;79.25;;
40997;SDS011;26740;45.944;12.480;2023-02-18T03:49:46;206.75;;;81.30;;
40997;SDS011;26740;45.944;12.480;2023-02-18T03:52:11;193.10;;;79.75;;
40997;SDS011;26740;45.944;12.480;2023-02-18T03:54:37;189.23;;;75.55;;
40997;SDS011;26740;45.944;12.480;2023-02-18T03:57:02;197.45;;;78.95;;
40997;SDS011;26740;45.944;12.480;2023-02-18T03:59:28;209.75;;;79.38;;
40997;SDS011;26740;45.944;12.480;2023-02-18T04:01:53;204.77;;;80.80;;
40997;SDS011;26740;45.944;12.480;2023-02-18T04:04:19;199.60;;;79.30;;
40997;SDS011;26740;45.944;12.480;2023-02-18T04:06:44;202.18;;;81.22;;
40997;SDS011;26740;45.944;12.480;2023-02-18T04:09:10;208.43;;;83.82;;
40997;SDS011;26740;45.944;12.480;2023-02-18T04:11:36;204.77;;;78.13;;
40997;SDS011;26740;45.944;12.480;2023-02-18T04:14:03;196.45;;;78.13;;
40997;SDS011;26740;45.944;12.480;2023-02-18T04:16:29;199.73;;;78.03;;
40997;SDS011;26740;45.944;12.480;2023-02-18T04:18:55;198.10;;;80.57;;
40997;SDS011;26740;45.944;12.480;2023-02-18T04:21:20;177.45;;;74.75;;
40997;SDS011;26740;45.944;12.480;2023-02-18T04:23:46;182.90;;;74.07;;
40997;SDS011;26740;45.944;12.480;2023-02-18T04:26:12;190.38;;;75.95;;
40997;SDS011;26740;45.944;12.480;2023-02-18T04:28:37;195.55;;;76.47;;
40997;SDS011;26740;45.944;12.480;2023-02-18T04:31:03;187.82;;;78.15;;
40997;SDS011;26740;45.944;12.480;2023-02-18T04:33:29;193.18;;;76.38;;
40997;SDS011;26740;45.944;12.480;2023-02-18T04:35:54;177.75;;;71.07;;
40997;SDS011;26740;45.944;12.480;2023-02-18T04:38:20;182.70;;;73.60;;
40997;SDS011;26740;45.944;12.480;2023-02-18T04:40:45;175.48;;;72.63;;
40997;SDS011;26740;45.944;12.480;2023-02-18T04:43:11;166.35;;;71.53;;
40997;SDS011;26740;45.944;12.480;2023-02-18T04:45:36;183.95;;;77.55;;
40997;SDS011;26740;45.944;12.480;2023-02-18T04:48:02;182.45;;;76.47;;
40997;SDS011;26740;45.944;12.480;2023-02-18T04:50:28;182.75;;;76.75;;
40997;SDS011;26740;45.944;12.480;2023-02-18T04:52:53;176.57;;;73.68;;
40997;SDS011;26740;45.944;12.480;2023-02-18T04:55:19;179.05;;;75.70;;
40997;SDS011;26740;45.944;12.480;2023-02-18T04:57:44;175.05;;;71.45;;
40997;SDS011;26740;45.944;12.480;2023-02-18T05:00:12;181.73;;;71.88;;
40997;SDS011;26740;45.944;12.480;2023-02-18T05:02:40;175.68;;;71.10;;
40997;SDS011;26740;45.944;12.480;2023-02-18T05:05:05;173.07;;;71.55;;
40997;SDS011;26740;45.944;12.480;2023-02-18T05:07:31;168.80;;;71.03;;
40997;SDS011;26740;45.944;12.480;2023-02-18T05:09:58;178.85;;;72.97;;
40997;SDS011;26740;45.944;12.480;2023-02-18T05:12:24;161.70;;;68.13;;
40997;SDS011;26740;45.944;12.480;2023-02-18T05:14:49;157.80;;;70.22;;
40997;SDS011;26740;45.944;12.480;2023-02-18T05:17:15;164.30;;;71.95;;
40997;SDS011;26740;45.944;12.480;2023-02-18T05:19:40;162.15;;;70.22;;
40997;SDS011;26740;45.944;12.480;2023-02-18T05:22:06;167.15;;;72.03;;
40997;SDS011;26740;45.944;12.480;2023-02-18T05:24:31;162.88;;;69.38;;
40997;SDS011;26740;45.944;12.480;2023-02-18T05:26:57;154.15;;;68.82;;
40997;SDS011;26740;45.944;12.480;2023-02-18T05:29:22;155.13;;;69.75;;
40997;SDS011;26740;45.944;12.480;2023-02-18T05:31:48;149.05;;;65.95;;
40997;SDS011;26740;45.944;12.480;2023-02-18T05:34:13;149.15;;;66.22;;
40997;SDS011;26740;45.944;12.480;2023-02-18T05:36:39;147.95;;;66.72;;
40997;SDS011;26740;45.944;12.480;2023-02-18T05:39:04;146.55;;;63.70;;
40997;SDS011;26740;45.944;12.480;2023-02-18T05:41:30;153.50;;;69.72;;
40997;SDS011;26740;45.944;12.480;2023-02-18T05:43:55;141.90;;;64.63;;
40997;SDS011;26740;45.944;12.480;2023-02-18T05:46:39;149.88;;;65.45;;
40997;SDS011;26740;45.944;12.480;2023-02-18T05:49:05;149.55;;;67.32;;
40997;SDS011;26740;45.944;12.480;2023-02-18T05:51:30;142.20;;;64.85;;
40997;SDS011;26740;45.944;12.480;2023-02-18T05:53:56;138.55;;;60.90;;
40997;SDS011;26740;45.944;12.480;2023-02-18T05:56:22;139.13;;;63.95;;
40997;SDS011;26740;45.944;12.480;2023-02-18T05:58:47;136.57;;;63.33;;
40997;SDS011;26740;45.944;12.480;2023-02-18T06:01:13;142.50;;;63.97;;
40997;SDS011;26740;45.944;12.480;2023-02-18T06:03:38;133.10;;;63.70;;
40997;SDS011;26740;45.944;12.480;2023-02-18T06:06:04;131.05;;;59.95;;
40997;SDS011;26740;45.944;12.480;2023-02-18T06:08:30;125.40;;;59.83;;
40997;SDS011;26740;45.944;12.480;2023-02-18T06:10:56;131.07;;;60.42;;
40997;SDS011;26740;45.944;12.480;2023-02-18T06:13:21;119.50;;;60.53;;
40997;SDS011;26740;45.944;12.480;2023-02-18T06:15:49;136.20;;;62.92;;
40997;SDS011;26740;45.944;12.480;2023-02-18T06:18:15;125.13;;;63.10;;
40997;SDS011;26740;45.944;12.480;2023-02-18T06:20:41;130.45;;;62.33;;
40997;SDS011;26740;45.944;12.480;2023-02-18T06:23:06;129.82;;;62.25;;
40997;SDS011;26740;45.944;12.480;2023-02-18T06:25:32;130.73;;;62.42;;
40997;SDS011;26740;45.944;12.480;2023-02-18T06:27:57;127.82;;;62.55;;
40997;SDS011;26740;45.944;12.480;2023-02-18T06:30:23;127.57;;;62.38;;
40997;SDS011;26740;45.944;12.480;2023-02-18T06:32:48;121.20;;;60.25;;
40997;SDS011;26740;45.944;12.480;2023-02-18T06:35:14;123.20;;;60.28;;
40997;SDS011;26740;45.944;12.480;2023-02-18T06:37:39;125.00;;;57.90;;
40997;SDS011;26740;45.944;12.480;2023-02-18T06:40:05;120.68;;;59.90;;
40997;SDS011;26740;45.944;12.480;2023-02-18T06:42:31;129.82;;;60.97;;
40997;SDS011;26740;45.944;12.480;2023-02-18T06:44:57;130.32;;;59.05;;
40997;SDS011;26740;45.944;12.480;2023-02-18T06:47:22;134.40;;;62.85;;
40997;SDS011;26740;45.944;12.480;2023-02-18T06:49:48;130.25;;;61.92;;
40997;SDS011;26740;45.944;12.480;2023-02-18T06:52:13;134.48;;;63.20;;
40997;SDS011;26740;45.944;12.480;2023-02-18T06:54:39;130.95;;;60.83;;
40997;SDS011;26740;45.944;12.480;2023-02-18T06:57:04;133.98;;;61.65;;
40997;SDS011;26740;45.944;12.480;2023-02-18T06:59:30;123.80;;;58.75;;
40997;SDS011;26740;45.944;12.480;2023-02-18T07:01:56;134.65;;;60.95;;
40997;SDS011;26740;45.944;12.480;2023-02-18T07:04:21;130.23;;;62.10;;
40997;SDS011;26740;45.944;12.480;2023-02-18T07:06:47;131.65;;;61.40;;
40997;SDS011;26740;45.944;12.480;2023-02-18T07:09:12;133.52;;;62.15;;
40997;SDS011;26740;45.944;12.480;2023-02-18T07:11:38;131.70;;;61.97;;
40997;SDS011;26740;45.944;12.480;2023-02-18T07:14:03;127.93;;;60.40;;
40997;SDS011;26740;45.944;12.480;2023-02-18T07:16:29;132.23;;;62.10;;
40997;SDS011;26740;45.944;12.480;2023-02-18T07:18:54;130.93;;;62.15;;
40997;SDS011;26740;45.944;12.480;2023-02-18T07:21:20;132.57;;;60.00;;
40997;SDS011;26740;45.944;12.480;2023-02-18T07:23:46;121.85;;;60.17;;
40997;SDS011;26740;45.944;12.480;2023-02-18T07:26:12;122.65;;;61.42;;
40997;SDS011;26740;45.944;12.480;2023-02-18T07:28:39;124.50;;;61.90;;
40997;SDS011;26740;45.944;12.480;2023-02-18T07:31:05;133.27;;;63.00;;
40997;SDS011;26740;45.944;12.480;2023-02-18T07:33:31;119.15;;;60.85;;
40997;SDS011;26740;45.944;12.480;2023-02-18T07:35:57;125.93;;;61.85;;
40997;SDS011;26740;45.944;12.480;2023-02-18T07:38:24;123.70;;;62.20;;
40997;SDS011;26740;45.944;12.480;2023-02-18T07:40:51;122.32;;;62.47;;
40997;SDS011;26740;45.944;12.480;2023-02-18T07:43:17;128.68;;;64.97;;
40997;SDS011;26740;45.944;12.480;2023-02-18T07:45:43;122.55;;;59.15;;
40997;SDS011;26740;45.944;12.480;2023-02-18T07:48:10;129.02;;;63.47;;
40997;SDS011;26740;45.944;12.480;2023-02-18T07:50:38;123.07;;;60.75;;
40997;SDS011;26740;45.944;12.480;2023-02-18T07:53:05;122.22;;;60.55;;
40997;SDS011;26740;45.944;12.480;2023-02-18T07:55:31;126.03;;;60.33;;
40997;SDS011;26740;45.944;12.480;2023-02-18T07:58:22;126.95;;;62.58;;
40997;SDS011;26740;45.944;12.480;2023-02-18T08:00:50;126.20;;;63.55;;
40997;SDS011;26740;45.944;12.480;2023-02-18T08:03:18;120.22;;;61.67;;
40997;SDS011;26740;45.944;12.480;2023-02-18T08:05:49;130.85;;;63.03;;
40997;SDS011;26740;45.944;12.480;2023-02-18T08:08:16;119.65;;;63.75;;
40997;SDS011;26740;45.944;12.480;2023-02-18T08:10:47;114.85;;;59.75;;
40997;SDS011;26740;45.944;12.480;2023-02-18T08:13:14;120.95;;;61.75;;
40997;SDS011;26740;45.944;12.480;2023-02-18T08:15:40;124.00;;;58.75;;
40997;SDS011;26740;45.944;12.480;2023-02-18T08:18:06;116.72;;;58.60;;
40997;SDS011;26740;45.944;12.480;2023-02-18T08:20:38;115.78;;;59.28;;
40997;SDS011;26740;45.944;12.480;2023-02-18T08:23:04;125.75;;;58.83;;
40997;SDS011;26740;45.944;12.480;2023-02-18T08:25:30;117.25;;;55.45;;
40997;SDS011;26740;45.944;12.480;2023-02-18T08:27:56;112.10;;;55.85;;
40997;SDS011;26740;45.944;12.480;2023-02-18T08:30:22;114.43;;;55.72;;
40997;SDS011;26740;45.944;12.480;2023-02-18T08:32:48;117.65;;;60.55;;
40997;SDS011;26740;45.944;12.480;2023-02-18T08:35:14;118.60;;;57.85;;
40997;SDS011;26740;45.944;12.480;2023-02-18T08:37:40;126.35;;;63.47;;
40997;SDS011;26740;45.944;12.480;2023-02-18T08:40:06;122.63;;;59.00;;
40997;SDS011;26740;45.944;12.480;2023-02-18T08:42:33;120.38;;;62.72;;
40997;SDS011;26740;45.944;12.480;2023-02-18T08:44:58;122.28;;;59.08;;
40997;SDS011;26740;45.944;12.480;2023-02-18T08:47:24;123.95;;;59.30;;
40997;SDS011;26740;45.944;12.480;2023-02-18T08:49:51;119.13;;;59.60;;
40997;SDS011;26740;45.944;12.480;2023-02-18T08:52:17;120.53;;;58.60;;
40997;SDS011;26740;45.944;12.480;2023-02-18T08:54:43;126.35;;;60.85;;
40997;SDS011;26740;45.944;12.480;2023-02-18T08:57:08;124.25;;;61.40;;
40997;SDS011;26740;45.944;12.480;2023-02-18T08:59:34;119.75;;;57.00;;
40997;SDS011;26740;45.944;12.480;2023-02-18T09:02:00;114.55;;;56.85;;
40997;SDS011;26740;45.944;12.480;2023-02-18T09:04:25;122.47;;;58.72;;
40997;SDS011;26740;45.944;12.480;2023-02-18T09:06:51;116.07;;;58.25;;
40997;SDS011;26740;45.944;12.480;2023-02-18T09:09:16;117.88;;;58.60;;
40997;SDS011;26740;45.944;12.480;2023-02-18T09:11:42;119.38;;;56.72;;
40997;SDS011;26740;45.944;12.480;2023-02-18T09:14:09;119.68;;;56.10;;
40997;SDS011;26740;45.944;12.480;2023-02-18T09:16:34;115.88;;;58.05;;
40997;SDS011;26740;45.944;12.480;2023-02-18T09:19:02;122.20;;;57.55;;
40997;SDS011;26740;45.944;12.480;2023-02-18T09:21:28;116.68;;;58.60;;
40997;SDS011;26740;45.944;12.480;2023-02-18T09:23:54;117.53;;;54.47;;
40997;SDS011;26740;45.944;12.480;2023-02-18T09:26:20;111.57;;;54.42;;
40997;SDS011;26740;45.944;12.480;2023-02-18T09:28:50;125.97;;;56.42;;
40997;SDS011;26740;45.944;12.480;2023-02-18T09:31:19;108.65;;;55.40;;
40997;SDS011;26740;45.944;12.480;2023-02-18T09:33:50;111.60;;;54.75;;
40997;SDS011;26740;45.944;12.480;2023-02-18T09:36:18;115.15;;;56.25;;
40997;SDS011;26740;45.944;12.480;2023-02-18T09:38:47;113.25;;;54.05;;
40997;SDS011;26740;45.944;12.480;2023-02-18T09:41:59;117.57;;;59.67;;
40997;SDS011;26740;45.944;12.480;2023-02-18T09:47:05;116.55;;;58.33;;
40997;SDS011;26740;45.944;12.480;2023-02-18T09:49:39;113.63;;;55.28;;
40997;SDS011;26740;45.944;12.480;2023-02-18T09:52:21;106.72;;;53.65;;
40997;SDS011;26740;45.944;12.480;2023-02-18T09:54:52;112.47;;;54.33;;
40997;SDS011;26740;45.944;12.480;2023-02-18T09:57:28;95.90;;;51.95;;
40997;SDS011;26740;45.944;12.480;2023-02-18T10:00:00;107.32;;;53.35;;
40997;SDS011;26740;45.944;12.480;2023-02-18T10:02:29;108.22;;;55.17;;
40997;SDS011;26740;45.944;12.480;2023-02-18T10:04:56;107.35;;;53.85;;
40997;SDS011;26740;45.944;12.480;2023-02-18T10:07:27;103.82;;;52.47;;
40997;SDS011;26740;45.944;12.480;2023-02-18T10:09:56;107.68;;;55.20;;
40997;SDS011;26740;45.944;12.480;2023-02-18T10:12:26;103.78;;;53.08;;
40997;SDS011;26740;45.944;12.480;2023-02-18T10:14:58;104.18;;;52.85;;
40997;SDS011;26740;45.944;12.480;2023-02-18T10:17:26;103.97;;;53.53;;
40997;SDS011;26740;45.944;12.480;2023-02-18T10:19:55;111.20;;;58.10;;
40997;SDS011;26740;45.944;12.480;2023-02-18T10:22:22;108.90;;;55.22;;
40997;SDS011;26740;45.944;12.480;2023-02-18T10:24:54;109.05;;;54.65;;
40997;SDS011;26740;45.944;12.480;2023-02-18T10:27:26;106.10;;;53.83;;
40997;SDS011;26740;45.944;12.480;2023-02-18T10:29:54;112.65;;;54.90;;
40997;SDS011;26740;45.944;12.480;2023-02-18T10:32:43;101.32;;;53.30;;
40997;SDS011;26740;45.944;12.480;2023-02-18T10:35:21;104.97;;;52.70;;
40997;SDS011;26740;45.944;12.480;2023-02-18T10:38:11;101.47;;;51.65;;
40997;SDS011;26740;45.944;12.480;2023-02-18T10:43:46;106.05;;;52.70;;
40997;SDS011;26740;45.944;12.480;2023-02-18T10:49:33;102.78;;;52.20;;
40997;SDS011;26740;45.944;12.480;2023-02-18T10:52:24;98.50;;;53.55;;
40997;SDS011;26740;45.944;12.480;2023-02-18T10:54:57;102.47;;;50.90;;
40997;SDS011;26740;45.944;12.480;2023-02-18T10:57:25;96.95;;;50.10;;
40997;SDS011;26740;45.944;12.480;2023-02-18T11:00:03;96.93;;;51.65;;
40997;SDS011;26740;45.944;12.480;2023-02-18T11:03:01;104.40;;;49.22;;
40997;SDS011;26740;45.944;12.480;2023-02-18T11:05:35;107.82;;;50.63;;
40997;SDS011;26740;45.944;12.480;2023-02-18T11:08:02;96.53;;;49.80;;
40997;SDS011;26740;45.944;12.480;2023-02-18T11:10:34;94.20;;;49.70;;
40997;SDS011;26740;45.944;12.480;2023-02-18T11:13:05;94.07;;;48.72;;
40997;SDS011;26740;45.944;12.480;2023-02-18T11:15:32;99.53;;;51.17;;
40997;SDS011;26740;45.944;12.480;2023-02-18T11:18:11;99.38;;;49.15;;
40997;SDS011;26740;45.944;12.480;2023-02-18T11:20:54;98.05;;;49.58;;
40997;SDS011;26740;45.944;12.480;2023-02-18T11:23:22;106.88;;;53.72;;
40997;SDS011;26740;45.944;12.480;2023-02-18T11:26:24;100.63;;;51.88;;
40997;SDS011;26740;45.944;12.480;2023-02-18T11:28:42;99.63;;;48.85;;
40997;SDS011;26740;45.944;12.480;2023-02-18T11:31:33;98.87;;;50.63;;
40997;SDS011;26740;45.944;12.480;2023-02-18T11:34:04;97.55;;;51.88;;
40997;SDS011;26740;45.944;12.480;2023-02-18T11:36:31;104.03;;;51.45;;
40997;SDS011;26740;45.944;12.480;2023-02-18T11:39:04;93.30;;;48.85;;
40997;SDS011;26740;45.944;12.480;2023-02-18T11:41:45;100.35;;;52.80;;
40997;SDS011;26740;45.944;12.480;2023-02-18T11:44:56;110.53;;;54.10;;
40997;SDS011;26740;45.944;12.480;2023-02-18T11:49:40;100.25;;;51.00;;
40997;SDS011;26740;45.944;12.480;2023-02-18T11:52:16;101.25;;;50.42;;
40997;SDS011;26740;45.944;12.480;2023-02-18T11:54:58;102.05;;;52.65;;
40997;SDS011;26740;45.944;12.480;2023-02-18T11:57:26;100.05;;;52.20;;
40997;SDS011;26740;45.944;12.480;2023-02-18T11:59:53;98.05;;;50.78;;
40997;SDS011;26740;45.944;12.480;2023-02-18T12:07:45;105.38;;;52.53;;
40997;SDS011;26740;45.944;12.480;2023-02-18T12:10:13;99.88;;;51.20;;
40997;SDS011;26740;45.944;12.480;2023-02-18T12:12:47;95.82;;;49.08;;
40997;SDS011;26740;45.944;12.480;2023-02-18T12:15:21;96.05;;;48.97;;
40997;SDS011;26740;45.944;12.480;2023-02-18T12:48:13;111.93;;;52.38;;
40997;SDS011;26740;45.944;12.480;2023-02-18T12:54:35;97.20;;;47.53;;
40997;SDS011;26740;45.944;12.480;2023-02-18T12:59:31;95.43;;;48.72;;
40997;SDS011;26740;45.944;12.480;2023-02-18T13:04:47;95.50;;;47.47;;
40997;SDS011;26740;45.944;12.480;2023-02-18T13:12:45;101.60;;;48.17;;
40997;SDS011;26740;45.944;12.480;2023-02-18T13:18:02;97.30;;;47.15;;
40997;SDS011;26740;45.944;12.480;2023-02-18T13:20:42;101.47;;;51.00;;
40997;SDS011;26740;45.944;12.480;2023-02-18T13:23:25;102.82;;;49.90;;
40997;SDS011;26740;45.944;12.480;2023-02-18T13:25:56;102.75;;;48.80;;
40997;SDS011;26740;45.944;12.480;2023-02-18T13:28:25;100.10;;;46.95;;
40997;SDS011;26740;45.944;12.480;2023-02-18T13:31:05;106.95;;;48.72;;
40997;SDS011;26740;45.944;12.480;2023-02-18T13:34:16;92.93;;;46.70;;
40997;SDS011;26740;45.944;12.480;2023-02-18T13:39:54;99.80;;;48.65;;
40997;SDS011;26740;45.944;12.480;2023-02-18T13:42:32;105.60;;;50.33;;
40997;SDS011;26740;45.944;12.480;2023-02-18T13:53:10;100.50;;;50.00;;
40997;SDS011;26740;45.944;12.480;2023-02-18T13:55:53;105.72;;;50.15;;
40997;SDS011;26740;45.944;12.480;2023-02-18T14:01:16;104.53;;;51.38;;
40997;SDS011;26740;45.944;12.480;2023-02-18T14:06:19;105.25;;;52.10;;
40997;SDS011;26740;45.944;12.480;2023-02-18T14:08:45;103.45;;;50.90;;
40997;SDS011;26740;45.944;12.480;2023-02-18T14:16:17;104.63;;;51.85;;
40997;SDS011;26740;45.944;12.480;2023-02-18T14:33:29;109.05;;;53.17;;
40997;SDS011;26740;45.944;12.480;2023-02-18T14:49:22;104.57;;;53.60;;
40997;SDS011;26740;45.944;12.480;2023-02-18T14:52:00;104.20;;;52.58;;
40997;SDS011;26740;45.944;12.480;2023-02-18T14:54:28;112.78;;;51.03;;
40997;SDS011;26740;45.944;12.480;2023-02-18T14:56:56;108.47;;;52.38;;
40997;SDS011;26740;45.944;12.480;2023-02-18T14:59:27;111.55;;;53.88;;
40997;SDS011;26740;45.944;12.480;2023-02-18T15:01:55;114.63;;;53.50;;
40997;SDS011;26740;45.944;12.480;2023-02-18T15:04:22;113.38;;;55.13;;
40997;SDS011;26740;45.944;12.480;2023-02-18T15:06:59;108.35;;;52.47;;
40997;SDS011;26740;45.944;12.480;2023-02-18T15:09:26;108.40;;;54.63;;
40997;SDS011;26740;45.944;12.480;2023-02-18T15:14:36;119.65;;;55.72;;
40997;SDS011;26740;45.944;12.480;2023-02-18T15:17:05;114.28;;;54.83;;
40997;SDS011;26740;45.944;12.480;2023-02-18T15:19:42;111.68;;;52.83;;
40997;SDS011;26740;45.944;12.480;2023-02-18T15:22:16;103.32;;;52.20;;
40997;SDS011;26740;45.944;12.480;2023-02-18T15:24:45;109.47;;;52.85;;
40997;SDS011;26740;45.944;12.480;2023-02-18T15:29:55;102.97;;;52.20;;
40997;SDS011;26740;45.944;12.480;2023-02-18T15:32:23;108.00;;;51.83;;
40997;SDS011;26740;45.944;12.480;2023-02-18T15:34:57;112.28;;;53.55;;
40997;SDS011;26740;45.944;12.480;2023-02-18T15:37:27;112.18;;;53.53;;
40997;SDS011;26740;45.944;12.480;2023-02-18T15:39:54;108.20;;;51.95;;
40997;SDS011;26740;45.944;12.480;2023-02-18T15:42:29;101.97;;;51.30;;
40997;SDS011;26740;45.944;12.480;2023-02-18T15:45:43;111.32;;;55.65;;
40997;SDS011;26740;45.944;12.480;2023-02-18T15:47:47;106.32;;;51.97;;
40997;SDS011;26740;45.944;12.480;2023-02-18T15:50:16;105.82;;;51.80;;
40997;SDS011;26740;45.944;12.480;2023-02-18T15:52:43;129.50;;;58.80;;
40997;SDS011;26740;45.944;12.480;2023-02-18T15:55:11;121.45;;;60.22;;
40997;SDS011;26740;45.944;12.480;2023-02-18T15:57:39;122.60;;;58.10;;
40997;SDS011;26740;45.944;12.480;2023-02-18T16:00:20;130.98;;;63.65;;
40997;SDS011;26740;45.944;12.480;2023-02-18T16:02:52;114.25;;;57.90;;
40997;SDS011;26740;45.944;12.480;2023-02-18T16:05:37;112.97;;;54.60;;
40997;SDS011;26740;45.944;12.480;2023-02-18T16:08:11;125.90;;;58.13;;
40997;SDS011;26740;45.944;12.480;2023-02-18T16:10:43;118.25;;;54.72;;
40997;SDS011;26740;45.944;12.480;2023-02-18T16:13:17;117.55;;;55.35;;
40997;SDS011;26740;45.944;12.480;2023-02-18T16:15:44;112.72;;;54.08;;
40997;SDS011;26740;45.944;12.480;2023-02-18T16:18:22;118.72;;;56.20;;
40997;SDS011;26740;45.944;12.480;2023-02-18T16:23:33;120.45;;;56.55;;
40997;SDS011;26740;45.944;12.480;2023-02-18T16:29:15;116.00;;;56.72;;
40997;SDS011;26740;45.944;12.480;2023-02-18T16:31:47;118.43;;;54.95;;
40997;SDS011;26740;45.944;12.480;2023-02-18T16:34:13;122.38;;;56.58;;
40997;SDS011;26740;45.944;12.480;2023-02-18T16:36:39;121.38;;;55.80;;
40997;SDS011;26740;45.944;12.480;2023-02-18T16:39:24;118.60;;;57.35;;
40997;SDS011;26740;45.944;12.480;2023-02-18T16:41:51;120.88;;;55.58;;
40997;SDS011;26740;45.944;12.480;2023-02-18T16:44:17;116.95;;;60.78;;
40997;SDS011;26740;45.944;12.480;2023-02-18T16:46:42;129.02;;;59.13;;
40997;SDS011;26740;45.944;12.480;2023-02-18T16:49:08;120.45;;;58.58;;
40997;SDS011;26740;45.944;12.480;2023-02-18T16:51:38;131.48;;;59.17;;
40997;SDS011;26740;45.944;12.480;2023-02-18T16:54:04;134.93;;;63.20;;
40997;SDS011;26740;45.944;12.480;2023-02-18T16:56:31;133.05;;;62.60;;
40997;SDS011;26740;45.944;12.480;2023-02-18T16:58:58;142.80;;;67.50;;
40997;SDS011;26740;45.944;12.480;2023-02-18T17:01:30;155.68;;;81.65;;
40997;SDS011;26740;45.944;12.480;2023-02-18T17:03:57;126.35;;;60.50;;